首页
METAR-TAF:

METAR-TAF

机场 :

克拉斯诺达尔, 俄罗斯

纬度: 45-02N, 经度: 039-09E, 海拔: 33米

当前天气观测

该预报发布于11分钟前的01:30 UTC
风速4节,风向
温度 13°C
湿度 94%
气压 1017 hPa
能见度10公里或以上
1500米以下无云,无积雨云

METAR: URKK 310130Z 17002MPS CAVOK 13/12 Q1017 R23L/CLRD70 NOSIG RMK QFE760

时间: 05:41 (01:41 UTC)

预报

该预报发布于2小时和45分钟前的22:56 UTC
预报有效从31日的 00点(UTC)到 31日的 24点(UTC)
风速6节,风向,有时为16节阵风
能見度: 6000
散云层高于2000英尺
短暂存在
从 31日的 00点(UTC)到 31日的 04点(UTC)
能見度: 0300
散云层高于1100英尺
从 31日的 0400点(UTC)
风速6节,风向南转南东,有时为16节阵风
能见度10公里或以上
散云层高于4000英尺, 积雨云.
短暂存在
从 31日的 04点(UTC)到 31日的 15点(UTC)
风速12节,风向西南,有时为23节阵风

TAF: URKK 302256Z 3100/3124 17003G08MPS 6000 SCT020 TEMPO 3100/3104 0300 FG SCT011 FM310400 16003G08MPS 9999 SCT040CB TEMPO 3104/3115 23006G12MPS

超过4000个机场的气象观测和天气预报(METAR&TAF报告)。

可查询的气象台以黄色和红色小点在地图上表示。

将鼠标移到小点上方,可查看气象台名称。

然后点击查看天气观测和预报。

如需切换地图:点击带黑十字的绿色按钮放大地图;点击带横线的绿色按钮缩小地图;或者点击绿色箭头查看邻近地区的地图。


METAR-TAF: